Time;durP1;ratioP1;P1;durP2;ratioP2;P2;SDS_P1;SDS_P2;PMS_P1;PMS_P2;Temp;Humidity;BMP_temperature;BMP_pressure;BME280_temperature;BME280_humidity;BME280_pressure;Samples;Min_cycle;Max_cycle;Signal;HPM_P1;HPM_P2
2021/12/21 00:02:25;;;;;;;13.85;6.53;;;;;;;;;;5056879;28;20518;-71
2021/12/21 00:04:51;;;;;;;10.27;6.38;;;;;;;;;;5074618;28;20047;-71
2021/12/21 00:07:17;;;;;;;10.73;6.10;;;-0.10;99.90;;;;;;5056370;28;20051;-71
2021/12/21 00:09:43;;;;;;;11.80;6.32;;;-0.30;99.90;;;;;;5055850;28;20032;-71
2021/12/21 00:12:10;;;;;;;11.52;6.82;;;-0.10;99.90;;;;;;5059566;28;20055;-71
2021/12/21 00:14:56;;;;;;;16.52;7.10;;;-0.10;99.90;;;;;;5073877;28;20410;-71
2021/12/21 00:23:12;;;;;;;11.02;5.97;;;-0.10;99.90;;;;;;5075993;28;20138;-71
2021/12/21 00:25:23;;;;;;;10.32;6.43;;;0.00;99.90;;;;;;5076006;28;20506;-72
2021/12/21 00:27:52;;;;;;;13.93;5.53;;;;;;;;;;5059443;28;20043;-71
2021/12/21 00:30:19;;;;;;;13.23;5.95;;;;;;;;;;5075763;28;20047;-71
2021/12/21 00:32:45;;;;;;;12.70;6.13;;;;;;;;;;5076190;28;20047;-71
2021/12/21 00:35:12;;;;;;;12.98;6.05;;;;;;;;;;5076344;28;20036;-71
2021/12/21 00:37:41;;;;;;;14.30;5.53;;;;;;;;;;5076307;28;20506;-71
2021/12/21 00:40:07;;;;;;;9.13;5.93;;;;;;;;;;5075608;28;20040;-71
2021/12/21 00:42:33;;;;;;;9.55;5.10;;;-0.20;99.90;;;;;;5076423;28;20484;-71
2021/12/21 00:44:59;;;;;;;13.90;7.00;;;;;;;;;;5075969;28;20127;-71
2021/12/21 00:47:25;;;;;;;9.27;6.32;;;;;;;;;;5075740;28;20452;-71
2021/12/21 00:49:58;;;;;;;10.05;5.32;;;;;;;;;;5074951;28;20498;-71
2021/12/21 00:52:25;;;;;;;9.13;5.50;;;;;;;;;;5075296;28;20572;-71
2021/12/21 00:54:51;;;;;;;10.95;5.80;;;-0.10;99.90;;;;;;5076012;28;20036;-71
2021/12/21 00:57:17;;;;;;;9.55;5.90;;;-0.30;99.90;;;;;;5064008;28;20515;-71
2021/12/21 00:59:43;;;;;;;8.90;5.00;;;;;;;;;;5055204;28;20048;-71
2021/12/21 01:02:10;;;;;;;9.35;4.75;;;;;;;;;;5073493;28;20517;-71
2021/12/21 01:04:41;;;;;;;7.93;4.45;;;;;;;;;;5055669;28;20044;-72
2021/12/21 01:07:19;;;;;;;10.35;5.28;;;-0.40;99.90;;;;;;5055458;28;20044;-72
2021/12/21 01:15:14;;;;;;;10.38;5.43;;;;;;;;;;5075401;28;20047;-71
2021/12/21 01:17:51;;;;;;;8.20;5.65;;;;;;;;;;5075632;28;20079;-71
2021/12/21 01:20:31;;;;;;;12.02;5.18;;;-0.40;99.90;;;;;;5074207;28;20051;-71
2021/12/21 01:25:49;;;;;;;8.32;4.97;;;;;;;;;;5075238;28;20044;-71
2021/12/21 01:28:24;;;;;;;10.00;4.93;;;;;;;;;;5074977;28;20052;-71
2021/12/21 01:30:59;;;;;;;10.45;5.00;;;-0.50;99.90;;;;;;5092648;28;20130;-72
2021/12/21 01:36:21;;;;;;;7.03;4.82;;;;;;;;;;5073932;28;20116;-70
2021/12/21 01:38:57;;;;;;;11.07;5.47;;;;;;;;;;5074915;28;20050;-71
2021/12/21 01:41:40;;;;;;;11.75;5.60;;;;;;;;;;5074729;28;20051;-70
2021/12/21 01:44:26;;;;;;;9.18;4.85;;;;;;;;;;5074850;28;20127;-71
2021/12/21 01:49:43;;;;;;;12.00;5.22;;;-0.60;99.90;;;;;;5074038;28;20070;-71
2021/12/21 01:52:16;;;;;;;10.27;5.47;;;-0.40;99.90;;;;;;5074551;28;20530;-71
2021/12/21 01:54:42;;;;;;;10.00;5.47;;;;;;;;;;5075010;28;20044;-71
2021/12/21 01:57:09;;;;;;;13.43;5.95;;;;;;;;;;5063867;28;20036;-71
2021/12/21 01:59:36;;;;;;;12.90;5.60;;;-0.70;99.90;;;;;;5037967;28;20037;-71
2021/12/21 02:02:03;;;;;;;11.05;5.28;;;;;;;;;;5054270;28;20044;-71
2021/12/21 02:04:29;;;;;;;13.57;5.60;;;;;;;;;;5054842;28;20070;-72
2021/12/21 02:06:55;;;;;;;13.35;5.75;;;;;;;;;;5055081;28;20667;-71
2021/12/21 02:09:26;;;;;;;14.18;6.15;;;;;;;;;;5037005;28;20514;-71
2021/12/21 02:11:52;;;;;;;14.48;6.22;;;-0.70;99.90;;;;;;5072657;28;20068;-71
2021/12/21 02:14:18;;;;;;;9.55;5.47;;;;;;;;;;5074293;28;20090;-71
2021/12/21 02:17:00;;;;;;;7.82;5.40;;;;;;;;;;5074206;28;20036;-71
2021/12/21 02:19:31;;;;;;;16.15;6.88;;;;;;;;;;5074304;28;20415;-70
2021/12/21 02:22:07;;;;;;;15.90;6.25;;;-0.80;99.90;;;;;;5074107;28;20044;-71
2021/12/21 02:24:43;;;;;;;9.85;5.57;;;-0.80;99.90;;;;;;5074083;28;20047;-71
2021/12/21 02:27:30;;;;;;;16.25;6.70;;;;;;;;;;5057257;28;20032;-71
2021/12/21 02:29:56;;;;;;;13.30;6.63;;;;;;;;;;5073229;28;20526;-71
2021/12/21 02:32:23;;;;;;;10.75;5.72;;;;;;;;;;5074023;28;20089;-71
2021/12/21 02:34:50;;;;;;;8.80;5.28;;;-1.00;99.90;;;;;;5074056;28;20063;-71
2021/12/21 02:37:15;;;;;;;11.18;5.28;;;-0.90;99.90;;;;;;5073198;28;20123;-71
2021/12/21 02:39:41;;;;;;;17.58;6.72;;;;;;;;;;5073644;28;20516;-71
2021/12/21 02:42:07;;;;;;;11.70;5.35;;;;;;;;;;5073846;28;20183;-71
2021/12/21 02:44:34;;;;;;;11.65;5.68;;;;;;;;;;5057101;28;20140;-71
2021/12/21 02:47:00;;;;;;;12.00;5.55;;;;;;;;;;5057423;28;20035;-71
2021/12/21 02:49:26;;;;;;;13.50;6.32;;;;;;;;;;5072943;28;20518;-71
2021/12/21 02:51:52;;;;;;;11.05;5.22;;;;;;;;;;5073405;28;20055;-71
2021/12/21 02:54:19;;;;;;;9.43;4.75;;;;;;;;;;5073724;28;20562;-71
2021/12/21 02:56:46;;;;;;;7.97;4.28;;;;;;;;;;5066460;28;20450;-71
2021/12/21 02:59:12;;;;;;;12.25;4.88;;;;;;;;;;5053210;28;20045;-71
2021/12/21 03:01:38;;;;;;;8.52;4.72;;;-0.90;99.90;;;;;;5053479;28;20089;-71
2021/12/21 03:04:05;;;;;;;9.02;3.95;;;;;;;;;;5053761;28;20044;-71
2021/12/21 03:08:58;;;;;;;9.05;4.38;;;;;;;;;;5052735;28;20091;-71
2021/12/21 03:12:12;;;;;;;7.60;4.13;;;;;;;;;;5067333;28;20044;-71
2021/12/21 03:14:11;;;;;;;7.82;4.20;;;-0.90;99.90;;;;;;5062150;28;20047;-71
2021/12/21 03:16:38;;;;;;;7.05;4.30;;;;;;;;;;5073591;28;20048;-71
2021/12/21 03:19:05;;;;;;;8.75;4.07;;;;;;;;;;5073308;28;20121;-71
2021/12/21 03:21:31;;;;;;;9.63;4.45;;;-1.10;99.90;;;;;;5073270;28;20050;-71
2021/12/21 03:23:57;;;;;;;6.07;3.70;;;;;;;;;;5073579;28;20047;-71
2021/12/21 03:26:23;;;;;;;7.38;4.30;;;-0.90;99.90;;;;;;5073168;28;20043;-71
2021/12/21 03:28:49;;;;;;;7.30;3.95;;;-1.00;99.90;;;;;;5073023;28;20063;-71
2021/12/21 03:31:15;;;;;;;7.28;3.85;;;;;;;;;;5055953;28;20044;-71
2021/12/21 03:33:41;;;;;;;7.22;3.83;;;;;;;;;;5073286;28;20090;-72
2021/12/21 03:36:07;;;;;;;7.28;4.38;;;;;;;;;;5073038;28;20059;-71
2021/12/21 03:38:34;;;;;;;5.43;3.33;;;-0.90;99.90;;;;;;5073617;28;20536;-71
2021/12/21 03:41:07;;;;;;;9.27;3.50;;;-1.00;99.90;;;;;;5056228;28;20047;-71
2021/12/21 03:43:34;;;;;;;5.95;3.83;;;-1.40;99.90;;;;;;5073917;28;20147;-71
2021/12/21 03:46:05;;;;;;;9.77;3.45;;;;;;;;;;5073240;28;20051;-71
2021/12/21 03:48:31;;;;;;;7.68;3.63;;;;;;;;;;5073236;28;20047;-70
2021/12/21 03:50:57;;;;;;;5.13;3.10;;;-1.20;99.90;;;;;;5072866;28;20089;-71
2021/12/21 03:53:22;;;;;;;4.78;3.05;;;-1.20;99.90;;;;;;5073357;28;20407;-71
2021/12/21 03:55:57;;;;;;;6.93;3.35;;;-1.10;99.90;;;;;;5073592;28;20082;-71
2021/12/21 03:58:23;;;;;;;8.55;3.40;;;;;;;;;;5053369;28;20388;-71
2021/12/21 04:00:49;;;;;;;6.65;4.63;;;-1.20;99.90;;;;;;5052652;28;20127;-71
2021/12/21 04:03:15;;;;;;;5.72;2.83;;;-1.20;99.90;;;;;;5053345;28;20486;-71
2021/12/21 04:05:41;;;;;;;6.20;3.20;;;;;;;;;;5053118;28;20047;-71
2021/12/21 04:08:07;;;;;;;4.40;2.80;;;;;;;;;;5052880;28;20453;-71
2021/12/21 04:10:33;;;;;;;6.22;3.70;;;;;;;;;;5039527;28;20175;-71
2021/12/21 04:12:58;;;;;;;11.98;3.53;;;-1.40;99.90;;;;;;5052914;28;20479;-71
2021/12/21 04:15:28;;;;;;;7.03;3.22;;;-1.40;99.90;;;;;;5052856;28;20174;-71
2021/12/21 04:17:54;;;;;;;9.05;3.60;;;;;;;;;;5069479;28;20120;-71
2021/12/21 04:20:19;;;;;;;8.70;3.35;;;;;;;;;;5052342;28;20525;-71
2021/12/21 04:22:45;;;;;;;6.47;3.00;;;;;;;;;;5052852;28;20044;-71
2021/12/21 04:25:12;;;;;;;6.30;3.22;;;;;;;;;;5052717;28;20087;-71
2021/12/21 04:27:38;;;;;;;11.35;3.70;;;;;;;;;;5055804;28;20115;-71
2021/12/21 04:30:04;;;;;;;7.30;3.72;;;;;;;;;;5055816;28;20126;-71
2021/12/21 04:32:30;;;;;;;8.57;4.22;;;;;;;;;;5056109;28;20049;-71
2021/12/21 04:34:56;;;;;;;11.48;3.85;;;;;;;;;;5056329;28;20748;-71
2021/12/21 04:37:23;;;;;;;6.68;4.40;;;;;;;;;;5056054;28;20558;-71
2021/12/21 04:39:59;;;;;;;6.90;3.53;;;;;;;;;;5073826;28;20083;-71
2021/12/21 04:42:25;;;;;;;5.07;3.55;;;;;;;;;;5067680;28;20684;-71
2021/12/21 04:44:51;;;;;;;5.43;3.30;;;;;;;;;;5096439;28;20035;-72
2021/12/21 04:47:17;;;;;;;7.78;3.80;;;;;;;;;;5096370;28;20036;-72
2021/12/21 04:49:43;;;;;;;9.27;3.40;;;;;;;;;;5095799;28;20096;-72
2021/12/21 04:52:09;;;;;;;7.15;3.20;;;;;;;;;;5095943;28;20046;-72
2021/12/21 04:54:36;;;;;;;9.77;3.53;;;-1.30;99.90;;;;;;5079587;28;20250;-72
2021/12/21 04:57:02;;;;;;;5.13;3.15;;;;;;;;;;5084680;28;20411;-72
2021/12/21 04:59:28;;;;;;;9.18;3.72;;;-1.50;99.90;;;;;;5075454;28;20037;-71
2021/12/21 05:01:54;;;;;;;5.43;3.25;;;;;;;;;;5075712;28;20055;-71
2021/12/21 05:04:20;;;;;;;9.63;3.78;;;;;;;;;;5075623;28;20047;-72
2021/12/21 05:06:46;;;;;;;8.15;3.83;;;;;;;;;;5058984;28;20518;-72
2021/12/21 05:09:22;;;;;;;8.10;3.70;;;;;;;;;;5074778;28;20388;-71
2021/12/21 05:11:48;;;;;;;10.13;4.32;;;-1.60;99.90;;;;;;5057927;28;20526;-72
2021/12/21 05:14:13;;;;;;;7.25;3.63;;;-1.60;99.90;;;;;;5073527;28;20036;-71
2021/12/21 05:16:39;;;;;;;8.02;3.58;;;;;;;;;;5082284;22;20517;-65
2021/12/21 05:19:06;;;;;;;12.27;3.97;;;;;;;;;;5073480;28;20047;-68
2021/12/21 05:21:32;;;;;;;6.35;3.63;;;-1.60;99.90;;;;;;5074698;28;20044;-69
2021/12/21 05:23:58;;;;;;;6.72;3.47;;;;;;;;;;5075348;28;20383;-69
2021/12/21 05:26:24;;;;;;;9.98;4.05;;;;;;;;;;5074823;28;20055;-70
2021/12/21 05:28:50;;;;;;;6.13;3.25;;;;;;;;;;5055147;28;20052;-70
2021/12/21 05:31:16;;;;;;;9.50;4.45;;;;;;;;;;5037566;28;20036;-68
2021/12/21 05:33:42;;;;;;;9.85;4.00;;;;;;;;;;5054870;28;20063;-67
2021/12/21 05:36:08;;;;;;;12.27;4.80;;;;;;;;;;5054614;28;20663;-67
2021/12/21 05:38:35;;;;;;;16.35;7.72;;;;;;;;;;5037853;28;20036;-67
2021/12/21 05:41:04;;;;;;;16.13;9.25;;;;;;;;;;5054494;28;20044;-67
2021/12/21 05:43:29;;;;;;;16.88;8.88;;;-1.40;99.90;;;;;;5054625;28;20036;-67
2021/12/21 05:45:55;;;;;;;16.33;8.63;;;;;;;;;;5054438;28;20064;-68
2021/12/21 05:48:21;;;;;;;15.07;8.10;;;;;;;;;;5053957;28;20109;-68
2021/12/21 05:50:47;;;;;;;15.73;8.65;;;;;;;;;;5053951;28;20040;-68
2021/12/21 05:53:13;;;;;;;16.13;8.68;;;;;;;;;;5037920;28;20131;-68
2021/12/21 05:55:39;;;;;;;13.77;8.02;;;;;;;;;;5054763;28;20036;-70
2021/12/21 05:58:06;;;;;;;14.05;8.05;;;;;;;;;;5054103;28;20032;-70
2021/12/21 06:00:33;;;;;;;14.00;7.88;;;-1.50;99.90;;;;;;5053768;28;20036;-71
2021/12/21 06:02:59;;;;;;;14.52;6.55;;;;;;;;;;5054268;28;20127;-68
2021/12/21 06:05:26;;;;;;;9.23;6.38;;;;;;;;;;5038046;28;20040;-67
2021/12/21 06:07:53;;;;;;;8.32;5.47;;;;;;;;;;5054061;28;20415;-68
2021/12/21 06:10:31;;;;;;;11.10;5.43;;;;;;;;;;5053017;28;20107;-68
2021/12/21 06:26:23;;;;;;;15.60;5.35;;;;;;;;;;5054041;28;20048;-70
2021/12/21 06:28:50;;;;;;;8.27;4.88;;;;;;;;;;5053420;28;20048;-70
2021/12/21 06:31:16;;;;;;;10.65;5.15;;;;;;;;;;5053063;28;20036;-70
2021/12/21 06:33:43;;;;;;;13.40;5.55;;;;;;;;;;5053547;28;20052;-69
2021/12/21 06:36:09;;;;;;;8.98;5.00;;;;;;;;;;5053873;28;20056;-68
2021/12/21 06:38:35;;;;;;;10.90;5.53;;;;;;;;;;5036820;28;20037;-68
2021/12/21 06:41:01;;;;;;;9.00;5.10;;;;;;;;;;5053252;28;20533;-67
2021/12/21 06:43:27;;;;;;;15.15;5.55;;;-1.90;99.90;;;;;;5053725;28;20087;-67
2021/12/21 06:51:39;;;;;;;12.20;4.65;;;;;;;;;;5052932;28;20117;-68
2021/12/21 06:54:05;;;;;;;8.95;5.57;;;;;;;;;;5053341;28;20041;-69
2021/12/21 06:56:31;;;;;;;11.73;5.30;;;;;;;;;;5048080;28;20037;-71
2021/12/21 06:58:57;;;;;;;13.70;6.22;;;;;;;;;;5016841;28;20067;-65
2021/12/21 07:01:26;;;;;;;10.90;5.18;;;;;;;;;;5033185;28;20048;-68
2021/12/21 07:03:52;;;;;;;13.27;5.13;;;;;;;;;;5033344;28;20041;-70
2021/12/21 07:06:19;;;;;;;16.52;6.60;;;;;;;;;;5033761;28;20102;-69
2021/12/21 07:08:58;;;;;;;7.57;5.22;;;;;;;;;;5032709;28;20128;-69
2021/12/21 07:11:36;;;;;;;10.13;5.60;;;;;;;;;;5032459;28;20090;-70
2021/12/21 07:19:37;;;;;;;12.32;6.57;;;;;;;;;;5056554;28;20047;-71
2021/12/21 07:22:04;;;;;;;18.25;8.10;;;-1.70;99.90;;;;;;5036586;28;20048;-70
2021/12/21 07:24:30;;;;;;;13.00;5.82;;;;;;;;;;5037996;28;20372;-69
2021/12/21 07:26:56;;;;;;;15.90;7.45;;;;;;;;;;5048996;28;20040;-69
2021/12/21 07:29:23;;;;;;;19.13;9.82;;;;;;;;;;5049073;28;20055;-69
2021/12/21 07:31:49;;;;;;;24.08;13.95;;;;;;;;;;5049172;28;20040;-67
2021/12/21 07:34:15;;;;;;;34.78;17.25;;;;;;;;;;5048671;28;20056;-70
2021/12/21 07:36:44;;;;;;;30.45;15.52;;;;;;;;;;5048889;28;20111;-69
2021/12/21 07:39:12;;;;;;;30.52;14.35;;;;;;;;;;5040893;28;20040;-68
2021/12/21 07:41:38;;;;;;;30.80;14.25;;;;;;;;;;5042219;28;20107;-70
2021/12/21 07:44:04;;;;;;;26.15;13.10;;;;;;;;;;5035489;28;20123;-70
2021/12/21 07:46:30;;;;;;;27.35;14.27;;;;;;;;;;5029627;28;20528;-68
2021/12/21 07:48:56;;;;;;;24.98;12.55;;;;;;;;;;5030715;28;20116;-68
2021/12/21 07:51:23;;;;;;;22.10;10.60;;;;;;;;;;5043376;28;20040;-68
2021/12/21 07:53:49;;;;;;;22.05;10.77;;;;;;;;;;5044034;28;20044;-70
2021/12/21 07:56:16;;;;;;;14.90;9.82;;;;;;;;;;5027359;28;20434;-69
2021/12/21 07:58:42;;;;;;;18.23;10.07;;;;;;;;;;5035306;28;20037;-67
2021/12/21 08:01:08;;;;;;;21.17;9.70;;;;;;;;;;5054122;28;20045;-67
2021/12/21 08:03:35;;;;;;;14.43;8.77;;;;;;;;;;5043931;28;20183;-67
2021/12/21 08:06:02;;;;;;;16.23;10.05;;;;;;;;;;5036707;28;20055;-67
2021/12/21 08:08:29;;;;;;;16.88;9.68;;;;;;;;;;5036083;28;20060;-70
2021/12/21 08:11:12;;;;;;;15.15;9.70;;;;;;;;;;5035982;28;20451;-67
2021/12/21 08:13:38;;;;;;;17.90;9.75;;;;;;;;;;5036067;28;20045;-70
2021/12/21 08:16:05;;;;;;;16.73;9.57;;;;;;;;;;5036123;28;20041;-67
2021/12/21 08:18:31;;;;;;;17.83;9.23;;;;;;;;;;5035784;28;20427;-68
2021/12/21 08:20:57;;;;;;;15.70;9.60;;;;;;;;;;5035690;28;20054;-69
2021/12/21 08:23:23;;;;;;;13.95;9.23;;;;;;;;;;5053799;28;20048;-68
2021/12/21 08:25:49;;;;;;;15.73;9.70;;;;;;;;;;5035142;28;20048;-68
2021/12/21 08:28:15;;;;;;;16.25;9.20;;;;;;;;;;5036069;28;20408;-68
2021/12/21 08:30:44;;;;;;;19.27;10.32;;;;;;;;;;5034853;28;20041;-70
2021/12/21 08:33:10;;;;;;;22.75;10.60;;;;;;;;;;5048455;28;20047;-67
2021/12/21 08:35:36;;;;;;;18.45;10.05;;;;;;;;;;5054347;28;20040;-67
2021/12/21 08:38:07;;;;;;;19.02;10.48;;;;;;;;;;5038849;28;20033;-68
2021/12/21 08:40:42;;;;;;;17.17;9.52;;;;;;;;;;5055484;28;20055;-68
2021/12/21 08:43:10;;;;;;;18.40;10.10;;;;;;;;;;5055485;28;20143;-70
2021/12/21 08:45:37;;;;;;;19.15;10.52;;;-1.30;99.90;;;;;;5073392;28;20043;-67
2021/12/21 08:48:05;;;;;;;17.75;9.90;;;;;;;;;;5055939;28;20137;-69
2021/12/21 08:50:31;;;;;;;18.73;9.73;;;;;;;;;;5030305;28;20116;-69
2021/12/21 08:52:57;;;;;;;16.02;9.77;;;-1.40;99.90;;;;;;5033008;28;20094;-68
2021/12/21 08:55:23;;;;;;;17.25;9.32;;;;;;;;;;5051633;28;20041;-68
2021/12/21 08:57:49;;;;;;;18.02;9.75;;;;;;;;;;5034973;28;20040;-69
2021/12/21 09:00:15;;;;;;;19.27;9.88;;;;;;;;;;5053674;28;20049;-67
2021/12/21 09:02:41;;;;;;;21.00;10.68;;;;;;;;;;5052538;28;20032;-68
2021/12/21 09:05:16;;;;;;;17.20;9.45;;;;;;;;;;5038585;28;20040;-67
2021/12/21 09:07:50;;;;;;;22.30;10.20;;;;;;;;;;5061813;28;20048;-67
2021/12/21 09:10:17;;;;;;;21.02;10.55;;;;;;;;;;5051403;28;20099;-68
2021/12/21 09:12:44;;;;;;;15.73;10.10;;;;;;;;;;5033684;28;20461;-70
2021/12/21 09:15:11;;;;;;;18.00;10.40;;;;;;;;;;5034742;28;20040;-69
2021/12/21 09:17:41;;;;;;;20.70;11.05;;;;;;;;;;5050866;28;20037;-67
2021/12/21 09:20:09;;;;;;;18.25;11.13;;;;;;;;;;5051146;28;20045;-70
2021/12/21 09:22:35;;;;;;;24.90;11.82;;;-0.70;99.90;;;;;;5062941;28;20044;-69
2021/12/21 09:25:01;;;;;;;23.48;10.88;;;;;;;;;;5052521;28;20029;-69
2021/12/21 09:27:27;;;;;;;25.13;11.55;;;;;;;;;;5051345;28;20072;-68
2021/12/21 09:29:53;;;;;;;22.05;11.73;;;;;;;;;;5053763;28;20068;-68
2021/12/21 09:32:20;;;;;;;26.48;13.60;;;;;;;;;;5072425;28;20093;-68
2021/12/21 09:34:46;;;;;;;26.40;12.73;;;;;;;;;;5054502;28;20076;-69
2021/12/21 09:37:19;;;;;;;26.58;14.60;;;;;;;;;;5052586;28;20063;-69
2021/12/21 09:39:51;;;;;;;23.33;13.07;;;0.10;99.90;;;;;;5053743;28;20055;-68
2021/12/21 09:42:18;;;;;;;24.98;13.73;;;;;;;;;;5053575;28;20622;-70
2021/12/21 09:44:45;;;;;;;20.48;12.57;;;;;;;;;;5036437;28;20048;-69
2021/12/21 09:47:11;;;;;;;24.30;13.95;;;;;;;;;;5054307;28;20040;-69
2021/12/21 09:49:39;;;;;;;28.27;13.95;;;;;;;;;;5053504;28;20044;-69
2021/12/21 09:52:06;;;;;;;22.80;12.70;;;;;;;;;;5054079;28;20062;-69
2021/12/21 09:54:34;;;;;;;25.30;12.27;;;;;;;;;;5037199;28;20043;-68
2021/12/21 09:57:00;;;;;;;20.73;11.70;;;;;;;;;;5048477;28;20047;-69
2021/12/21 09:59:26;;;;;;;21.67;11.57;;;;;;;;;;5041452;28;20405;-68
2021/12/21 10:01:55;;;;;;;23.02;11.95;;;0.60;99.90;;;;;;5032801;28;20037;-69
2021/12/21 10:04:21;;;;;;;20.27;11.27;;;;;;;;;;5017349;28;20565;-69
2021/12/21 10:06:49;;;;;;;18.50;10.10;;;;;;;;;;5045385;28;20044;-72
2021/12/21 10:09:16;;;;;;;17.00;10.70;;;;;;;;;;5071745;28;20123;-69
2021/12/21 10:11:43;;;;;;;17.67;10.00;;;;;;;;;;5053972;28;20043;-69
2021/12/21 10:14:09;;;;;;;19.58;10.35;;;;;;;;;;5052631;28;20068;-69
2021/12/21 10:16:34;;;;;;;18.05;10.55;;;1.10;99.90;;;;;;5049783;28;20071;-69
2021/12/21 10:19:00;;;;;;;20.40;10.90;;;1.30;99.90;;;;;;5051607;28;20143;-71
2021/12/21 10:21:26;;;;;;;17.30;10.23;;;;;;;;;;5052606;28;20044;-70
2021/12/21 10:23:54;;;;;;;16.55;9.30;;;;;;;;;;5032264;28;20041;-69
2021/12/21 10:26:20;;;;;;;21.50;10.35;;;;;;;;;;5050968;28;20678;-69
2021/12/21 10:28:48;;;;;;;16.45;10.50;;;;;;;;;;5049031;28;20136;-69
2021/12/21 10:31:46;;;;;;;19.55;9.77;;;;;;;;;;5032506;28;20045;-70
2021/12/21 10:34:14;;;;;;;20.42;9.27;;;1.30;99.90;;;;;;5043808;28;20057;-69
2021/12/21 10:36:41;;;;;;;22.27;11.05;;;1.60;99.90;;;;;;5050126;28;20045;-70
2021/12/21 10:39:07;;;;;;;23.10;11.30;;;;;;;;;;5049903;28;20091;-66
2021/12/21 10:41:44;;;;;;;19.33;9.40;;;;;;;;;;5042138;28;20590;-69
2021/12/21 10:44:12;;;;;;;17.13;8.85;;;;;;;;;;5049493;28;20521;-69
2021/12/21 10:46:39;;;;;;;14.90;8.80;;;;;;;;;;5036726;28;20044;-67
2021/12/21 10:49:13;;;;;;;13.93;7.93;;;;;;;;;;5052944;28;20051;-69
2021/12/21 10:51:58;;;;;;;18.85;9.50;;;;;;;;;;5052947;28;20492;-69
2021/12/21 10:54:31;;;;;;;17.38;8.70;;;;;;;;;;5052400;28;20094;-69
2021/12/21 10:57:02;;;;;;;14.75;8.50;;;2.00;99.90;;;;;;5052415;28;20123;-69
2021/12/21 10:59:29;;;;;;;15.98;9.00;;;;;;;;;;5050128;28;20037;-69
2021/12/21 11:02:04;;;;;;;19.75;8.90;;;;;;;;;;5052628;28;20048;-70
2021/12/21 11:04:53;;;;;;;15.23;8.18;;;;;;;;;;5050456;28;20126;-69
2021/12/21 11:10:09;;;;;;;14.38;7.82;;;;;;;;;;5048625;28;20055;-69
2021/12/21 11:12:41;;;;;;;20.07;7.87;;;;;;;;;;5032850;28;20044;-69
2021/12/21 11:15:09;;;;;;;16.63;7.50;;;2.10;99.90;;;;;;5048752;28;20029;-69
2021/12/21 11:17:35;;;;;;;13.43;6.85;;;;;;;;;;5082483;22;20521;-70
2021/12/21 11:20:01;;;;;;;15.80;7.32;;;;;;;;;;5070831;28;20040;-70
2021/12/21 11:22:28;;;;;;;15.23;7.88;;;;;;;;;;5056803;28;20466;-70
2021/12/21 11:24:56;;;;;;;18.02;8.00;;;2.20;99.90;;;;;;5053941;28;20040;-71
2021/12/21 11:27:24;;;;;;;13.15;7.13;;;2.30;99.90;;;;;;5059271;28;20049;-71
2021/12/21 11:29:52;;;;;;;16.88;7.32;;;2.20;99.90;;;;;;5032792;28;20045;-72
2021/12/21 11:32:18;;;;;;;15.55;7.53;;;2.10;99.90;;;;;;5016911;28;20048;-72
2021/12/21 11:37:31;;;;;;;14.40;6.88;;;;;;;;;;5037113;28;20048;-72
2021/12/21 11:39:57;;;;;;;13.50;6.90;;;;;;;;;;5037297;28;20037;-72
2021/12/21 11:42:33;;;;;;;12.55;6.78;;;;;;;;;;5045031;28;20144;-71
2021/12/21 11:45:04;;;;;;;13.63;7.28;;;;;;;;;;5071779;28;20055;-73
2021/12/21 11:47:53;;;;;;;14.80;7.28;;;;;;;;;;5036920;28;20036;-71
2021/12/21 11:50:19;;;;;;;17.25;7.72;;;;;;;;;;5036662;28;20044;-70
2021/12/21 11:52:50;;;;;;;14.73;7.60;;;;;;;;;;5048481;28;20037;-71
2021/12/21 11:55:18;;;;;;;13.05;6.78;;;2.70;99.90;;;;;;5045120;28;20519;-70
2021/12/21 11:57:59;;;;;;;11.27;7.00;;;2.60;99.90;;;;;;5054571;28;20177;-72
2021/12/21 12:00:30;;;;;;;19.90;8.88;;;;;;;;;;5055844;28;20036;-72
2021/12/21 12:03:07;;;;;;;14.30;7.15;;;;;;;;;;5056445;28;20043;-72
2021/12/21 12:05:34;;;;;;;17.65;7.95;;;;;;;;;;5055673;28;20048;-72
2021/12/21 12:08:04;;;;;;;15.15;8.40;;;2.80;99.90;;;;;;5055030;28;20044;-71
2021/12/21 12:10:30;;;;;;;12.02;7.07;;;2.80;99.90;;;;;;5055620;28;20059;-71
2021/12/21 12:13:06;;;;;;;15.77;8.10;;;;;;;;;;5056650;28;20037;-71
2021/12/21 12:16:00;;;;;;;16.88;7.55;;;2.90;99.90;;;;;;5073637;28;20542;-71
2021/12/21 12:18:39;;;;;;;13.35;6.93;;;3.00;99.90;;;;;;5054436;28;20411;-71
2021/12/21 12:21:25;;;;;;;12.23;7.90;;;;;;;;;;5056060;28;20041;-71
2021/12/21 12:23:53;;;;;;;16.30;7.47;;;;;;;;;;5047658;28;20044;-71
2021/12/21 12:26:28;;;;;;;17.45;7.25;;;2.90;99.90;;;;;;5038127;28;20036;-71
2021/12/21 12:28:55;;;;;;;13.27;6.40;;;;;;;;;;5055657;28;20045;-71
2021/12/21 12:31:32;;;;;;;13.52;6.90;;;;;;;;;;5038631;28;20036;-72
2021/12/21 12:33:58;;;;;;;14.98;6.82;;;;;;;;;;5055913;28;20394;-72
2021/12/21 12:36:39;;;;;;;11.13;6.72;;;;;;;;;;5055696;28;20036;-71
2021/12/21 12:39:07;;;;;;;12.25;6.47;;;;;;;;;;5039165;28;20036;-71
2021/12/21 12:41:43;;;;;;;12.57;7.22;;;3.10;99.90;;;;;;5055756;28;20088;-71
2021/12/21 12:44:19;;;;;;;12.98;6.53;;;;;;;;;;5055814;28;20040;-71
2021/12/21 12:46:52;;;;;;;11.40;6.68;;;2.90;99.90;;;;;;5054486;28;20452;-72
2021/12/21 12:49:29;;;;;;;11.98;5.95;;;3.10;99.90;;;;;;5055397;28;20055;-71
2021/12/21 12:52:04;;;;;;;14.52;6.90;;;;;;;;;;5055419;28;20036;-72
2021/12/21 12:54:30;;;;;;;17.30;6.78;;;;;;;;;;5055409;28;20337;-70
2021/12/21 12:56:55;;;;;;;14.77;6.38;;;3.20;99.90;;;;;;5029588;28;20496;-72
2021/12/21 12:59:21;;;;;;;14.13;6.90;;;3.20;99.90;;;;;;5035196;28;20136;-72
2021/12/21 13:01:48;;;;;;;13.90;6.22;;;;;;;;;;5035745;28;20045;-71
2021/12/21 13:04:16;;;;;;;16.00;5.63;;;3.00;99.90;;;;;;5035252;28;20605;-71
2021/12/21 13:06:43;;;;;;;18.85;6.60;;;;;;;;;;5035797;28;20041;-71
2021/12/21 13:09:15;;;;;;;10.25;5.55;;;3.20;99.90;;;;;;5035802;28;20447;-70
2021/12/21 13:11:42;;;;;;;17.80;6.70;;;;;;;;;;5051400;28;20137;-72
2021/12/21 13:14:13;;;;;;;18.23;7.18;;;3.20;99.90;;;;;;5055568;28;20165;-71
2021/12/21 13:16:40;;;;;;;17.88;6.53;;;;;;;;;;5038544;28;20734;-71
2021/12/21 13:19:07;;;;;;;12.60;6.63;;;;;;;;;;5037590;28;20550;-71
2021/12/21 13:21:35;;;;;;;17.40;6.57;;;3.10;99.90;;;;;;5054723;28;20407;-72
2021/12/21 13:24:10;;;;;;;12.82;6.13;;;3.20;99.90;;;;;;5054598;28;20051;-72
2021/12/21 13:26:56;;;;;;;9.13;5.75;;;;;;;;;;5049040;28;20525;-71
2021/12/21 13:29:23;;;;;;;11.18;6.28;;;;;;;;;;5034847;28;20134;-71
2021/12/21 13:31:54;;;;;;;13.82;6.68;;;;;;;;;;5034977;28;20041;-71
2021/12/21 13:34:20;;;;;;;13.23;5.85;;;;;;;;;;5035124;28;20041;-71
2021/12/21 13:36:49;;;;;;;15.65;6.78;;;;;;;;;;5018540;28;20462;-71
2021/12/21 13:39:15;;;;;;;15.57;6.72;;;;;;;;;;5054101;28;20037;-71
2021/12/21 13:41:45;;;;;;;13.45;6.68;;;;;;;;;;5047287;28;20052;-72
2021/12/21 13:44:11;;;;;;;10.73;6.70;;;;;;;;;;5052617;28;20052;-71
2021/12/21 13:46:37;;;;;;;12.38;6.78;;;;;;;;;;5054007;28;20041;-72
2021/12/21 13:49:03;;;;;;;12.68;6.30;;;;;;;;;;5052023;28;20040;-72
2021/12/21 13:51:29;;;;;;;10.52;6.00;;;3.20;99.90;;;;;;5050999;28;20041;-72
2021/12/21 13:53:58;;;;;;;14.85;6.78;;;;;;;;;;5052160;28;20035;-72
2021/12/21 13:56:27;;;;;;;12.70;7.22;;;3.00;99.90;;;;;;5051812;28;20127;-73
2021/12/21 13:58:54;;;;;;;22.77;6.50;;;;;;;;;;5046940;28;20141;-71
2021/12/21 14:01:22;;;;;;;10.80;6.15;;;;;;;;;;5041794;28;20621;-72
2021/12/21 14:03:52;;;;;;;14.05;6.03;;;;;;;;;;5025590;28;20044;-72
2021/12/21 14:06:22;;;;;;;9.57;6.20;;;3.00;99.90;;;;;;5033676;28;20056;-72
2021/12/21 14:08:49;;;;;;;16.73;6.13;;;;;;;;;;5021321;28;20481;-72
2021/12/21 14:11:16;;;;;;;16.40;6.07;;;;;;;;;;5044898;28;20116;-72
2021/12/21 14:13:43;;;;;;;9.75;5.38;;;;;;;;;;5053920;28;20539;-72
2021/12/21 14:16:13;;;;;;;12.35;5.80;;;;;;;;;;5040136;28;20045;-72
2021/12/21 14:18:41;;;;;;;11.45;5.80;;;;;;;;;;5047015;28;20503;-72
2021/12/21 14:21:10;;;;;;;13.00;6.40;;;;;;;;;;5052806;28;20659;-72
2021/12/21 14:23:39;;;;;;;14.65;5.80;;;2.90;99.90;;;;;;5034049;28;20048;-72
2021/12/21 14:26:14;;;;;;;9.20;5.80;;;3.00;99.90;;;;;;5044818;28;20040;-72
2021/12/21 14:28:44;;;;;;;13.30;5.78;;;;;;;;;;5042447;28;20052;-72
2021/12/21 14:31:10;;;;;;;15.88;6.93;;;;;;;;;;5017524;28;20571;-72
2021/12/21 14:33:49;;;;;;;16.42;5.55;;;;;;;;;;5024964;28;20067;-72
2021/12/21 14:36:19;;;;;;;11.80;5.93;;;2.60;99.90;;;;;;5054135;28;20040;-72
2021/12/21 14:39:03;;;;;;;14.50;6.65;;;;;;;;;;5054184;28;20090;-73
2021/12/21 14:41:31;;;;;;;12.15;5.50;;;;;;;;;;5054037;28;20041;-72
2021/12/21 14:44:04;;;;;;;11.60;5.78;;;;;;;;;;5053897;28;20040;-72
2021/12/21 14:46:31;;;;;;;14.93;7.90;;;;;;;;;;5053133;28;20036;-72
2021/12/21 14:49:09;;;;;;;14.40;6.20;;;2.60;99.90;;;;;;5053447;28;20507;-70
2021/12/21 14:51:49;;;;;;;12.07;7.50;;;2.50;99.90;;;;;;5053737;28;20048;-72
2021/12/21 14:54:23;;;;;;;15.43;7.32;;;2.50;99.90;;;;;;5053851;28;20555;-72
2021/12/21 14:56:49;;;;;;;14.02;7.20;;;2.40;99.90;;;;;;5053592;28;20036;-72
2021/12/21 14:59:14;;;;;;;13.70;7.35;;;2.50;99.90;;;;;;5053788;28;20082;-72
2021/12/21 15:01:52;;;;;;;18.02;7.40;;;2.40;99.90;;;;;;5053698;28;20040;-72
2021/12/21 15:04:22;;;;;;;17.50;8.57;;;;;;;;;;5053749;28;20515;-71